createdAt,value
2019-01-24T00:00:52.915Z,8.00
2019-01-24T00:01:52.932Z,4.00
2019-01-24T00:02:52.897Z,8.00
2019-01-24T00:03:52.989Z,4.00
2019-01-24T00:04:52.854Z,8.00
2019-01-24T00:05:52.840Z,8.00
2019-01-24T00:06:52.822Z,4.00
2019-01-24T00:07:52.810Z,4.00
2019-01-24T00:08:52.866Z,4.00
2019-01-24T00:09:52.781Z,4.00
2019-01-24T00:10:52.778Z,8.00
2019-01-24T00:11:52.753Z,4.00
2019-01-24T00:12:52.736Z,4.00
2019-01-24T00:13:52.717Z,4.00
2019-01-24T00:14:52.701Z,8.00
2019-01-24T00:15:52.687Z,4.00
2019-01-24T00:16:52.668Z,8.00
2019-01-24T00:17:52.664Z,4.00
2019-01-24T00:18:52.640Z,4.00
2019-01-24T00:19:52.626Z,8.00
2019-01-24T00:20:52.610Z,4.00
2019-01-24T00:21:52.596Z,4.00
2019-01-24T00:22:52.583Z,4.00
2019-01-24T00:23:52.566Z,8.00
2019-01-24T00:24:52.552Z,4.00
2019-01-24T00:25:52.577Z,8.00
2019-01-24T00:26:52.526Z,8.00
2019-01-24T00:27:52.506Z,4.00
2019-01-24T00:28:52.488Z,4.00
2019-01-24T00:29:52.474Z,8.00
2019-01-24T00:30:52.458Z,4.00
2019-01-24T00:31:52.436Z,4.00
2019-01-24T00:32:52.430Z,4.00
2019-01-24T00:33:52.420Z,8.00
2019-01-24T00:34:53.389Z,4.00
2019-01-24T00:35:52.384Z,4.00
2019-01-24T00:36:52.366Z,4.00
2019-01-24T00:37:52.348Z,4.00
2019-01-24T00:38:52.335Z,8.00
2019-01-24T00:39:52.323Z,4.00
2019-01-24T00:40:52.308Z,4.00
2019-01-24T00:41:52.289Z,8.00
2019-01-24T00:42:52.279Z,8.00
2019-01-24T00:43:52.262Z,8.00
2019-01-24T00:44:52.247Z,4.00
2019-01-24T00:45:52.233Z,4.00
2019-01-24T00:46:52.216Z,4.00
2019-01-24T00:47:52.199Z,4.00
2019-01-24T00:48:52.187Z,4.00
2019-01-24T00:49:52.176Z,4.00
2019-01-24T00:50:52.149Z,4.00
2019-01-24T00:51:52.138Z,4.00
2019-01-24T00:52:52.122Z,4.00
2019-01-24T00:53:52.113Z,4.00
2019-01-24T00:54:52.096Z,4.00
2019-01-24T00:55:52.082Z,4.00
2019-01-24T00:56:52.077Z,4.00
2019-01-24T00:57:52.048Z,4.00
2019-01-24T00:58:52.028Z,4.00
2019-01-24T00:59:52.018Z,4.00
2019-01-24T01:00:52.005Z,4.00
2019-01-24T01:01:51.992Z,4.00
2019-01-24T01:02:51.971Z,4.00
2019-01-24T01:03:51.960Z,4.00
2019-01-24T01:04:51.942Z,4.00
2019-01-24T01:05:51.932Z,4.00
2019-01-24T01:06:51.913Z,4.00
2019-01-24T01:07:51.899Z,4.00
2019-01-24T01:08:51.882Z,4.00
2019-01-24T01:09:51.869Z,4.00
2019-01-24T01:10:51.854Z,4.00
2019-01-24T01:11:51.835Z,4.00
2019-01-24T01:12:51.827Z,4.00
2019-01-24T01:13:51.810Z,4.00
2019-01-24T01:14:51.794Z,4.00
2019-01-24T01:15:51.779Z,4.00
2019-01-24T01:16:51.763Z,4.00
2019-01-24T01:17:51.752Z,4.00
2019-01-24T01:18:51.744Z,4.00
2019-01-24T01:19:51.722Z,4.00
2019-01-24T01:20:51.708Z,4.00
2019-01-24T01:21:51.691Z,4.00
2019-01-24T01:22:51.672Z,4.00
2019-01-24T01:23:51.660Z,4.00
2019-01-24T01:24:51.645Z,4.00
2019-01-24T01:25:51.632Z,4.00
2019-01-24T01:26:51.637Z,4.00
2019-01-24T01:27:51.602Z,4.00
2019-01-24T01:28:51.588Z,4.00
2019-01-24T01:29:51.571Z,4.00
2019-01-24T01:30:51.558Z,4.00
2019-01-24T01:31:51.542Z,4.00
2019-01-24T01:32:51.529Z,4.00
2019-01-24T01:33:51.516Z,4.00
2019-01-24T01:34:51.499Z,4.00
2019-01-24T01:35:52.149Z,4.00
2019-01-24T01:36:51.475Z,4.00
2019-01-24T01:37:51.468Z,4.00
2019-01-24T01:38:51.441Z,4.00
2019-01-24T01:39:51.420Z,4.00
2019-01-24T01:40:51.411Z,4.00
2019-01-24T01:41:51.407Z,4.00
2019-01-24T01:42:51.380Z,4.00
2019-01-24T01:43:51.369Z,4.00
2019-01-24T01:44:51.352Z,4.00
2019-01-24T01:45:51.344Z,4.00
2019-01-24T01:46:51.322Z,4.00
2019-01-24T01:47:51.306Z,4.00
2019-01-24T01:48:51.296Z,4.00
2019-01-24T01:49:51.277Z,4.00
2019-01-24T01:50:51.260Z,4.00
2019-01-24T01:51:51.247Z,4.00
2019-01-24T01:52:51.230Z,4.00
2019-01-24T01:53:51.214Z,4.00
2019-01-24T01:54:51.202Z,4.00
2019-01-24T01:55:51.201Z,4.00
2019-01-24T01:56:51.169Z,4.00
2019-01-24T01:57:51.157Z,4.00
2019-01-24T01:58:51.144Z,4.00
2019-01-24T01:59:51.128Z,4.00
2019-01-24T02:00:51.137Z,4.00
2019-01-24T02:01:51.098Z,4.00
2019-01-24T02:02:51.077Z,4.00
2019-01-24T02:03:51.067Z,4.00
2019-01-24T02:04:51.055Z,4.00
2019-01-24T02:05:51.039Z,4.00
2019-01-24T02:06:51.023Z,4.00
2019-01-24T02:07:51.008Z,4.00
2019-01-24T02:08:50.998Z,4.00
2019-01-24T02:09:50.979Z,4.00
2019-01-24T02:10:50.962Z,4.00
2019-01-24T02:11:50.951Z,4.00
2019-01-24T02:12:50.935Z,4.00
2019-01-24T02:13:50.924Z,4.00
2019-01-24T02:14:50.907Z,4.00
2019-01-24T02:15:50.893Z,4.00
2019-01-24T02:16:50.878Z,4.00
2019-01-24T02:17:50.862Z,4.00
2019-01-24T02:18:50.847Z,4.00
2019-01-24T02:19:50.837Z,4.00
2019-01-24T02:20:50.819Z,4.00
2019-01-24T02:21:50.811Z,4.00
2019-01-24T02:22:50.790Z,4.00
2019-01-24T02:23:50.773Z,4.00
2019-01-24T02:24:50.759Z,4.00
2019-01-24T02:25:50.742Z,4.00
2019-01-24T02:26:50.731Z,4.00
2019-01-24T02:27:50.725Z,4.00
2019-01-24T02:28:50.700Z,4.00
2019-01-24T02:29:50.684Z,4.00
2019-01-24T02:30:50.673Z,4.00
2019-01-24T02:31:50.658Z,4.00
2019-01-24T02:32:50.642Z,4.00
2019-01-24T02:33:50.626Z,4.00
2019-01-24T02:34:50.610Z,4.00
2019-01-24T02:35:50.597Z,4.00
2019-01-24T02:36:50.925Z,4.00
2019-01-24T02:37:50.567Z,4.00
2019-01-24T02:38:50.558Z,4.00
2019-01-24T02:39:50.541Z,4.00
2019-01-24T02:40:50.522Z,4.00
2019-01-24T02:41:50.510Z,4.00
2019-01-24T02:42:50.493Z,4.00
2019-01-24T02:43:50.482Z,4.00
2019-01-24T02:44:50.466Z,4.00
2019-01-24T02:45:50.452Z,4.00
2019-01-24T02:46:50.432Z,4.00
2019-01-24T02:47:50.418Z,4.00
2019-01-24T02:48:50.409Z,4.00
2019-01-24T02:49:50.390Z,4.00
2019-01-24T02:50:50.382Z,4.00
2019-01-24T02:51:50.358Z,4.00
2019-01-24T02:52:50.343Z,4.00
2019-01-24T02:53:50.329Z,4.00
2019-01-24T02:54:50.314Z,4.00
2019-01-24T02:55:50.306Z,4.00
2019-01-24T02:56:50.290Z,4.00
2019-01-24T02:57:50.266Z,4.00
2019-01-24T02:58:50.252Z,4.00
2019-01-24T02:59:50.246Z,4.00
2019-01-24T03:00:50.226Z,4.00
2019-01-24T03:01:50.242Z,4.00
2019-01-24T03:02:50.201Z,4.00
2019-01-24T03:03:50.182Z,4.00
2019-01-24T03:04:56.661Z,4.00
2019-01-24T03:05:50.149Z,4.00
2019-01-24T03:06:50.132Z,4.00
2019-01-24T03:07:50.118Z,4.00
2019-01-24T03:08:50.104Z,4.00
2019-01-24T03:09:50.116Z,4.00
2019-01-24T03:10:50.078Z,4.00
2019-01-24T03:11:50.059Z,4.00
2019-01-24T03:12:50.045Z,4.00
2019-01-24T03:13:50.029Z,4.00
2019-01-24T03:14:50.016Z,4.00
2019-01-24T03:15:50.000Z,4.00
2019-01-24T03:16:49.987Z,4.00
2019-01-24T03:17:49.979Z,4.00
2019-01-24T03:18:49.956Z,4.00
2019-01-24T03:19:49.942Z,4.00
2019-01-24T03:20:49.928Z,4.00
2019-01-24T03:21:49.909Z,4.00
2019-01-24T03:22:49.894Z,4.00
2019-01-24T03:23:49.884Z,4.00
2019-01-24T03:24:49.883Z,4.00
2019-01-24T03:25:49.857Z,4.00
2019-01-24T03:26:49.837Z,4.00
2019-01-24T03:27:49.829Z,4.00
2019-01-24T03:28:49.814Z,4.00
2019-01-24T03:29:49.793Z,4.00
2019-01-24T03:30:49.778Z,4.00
2019-01-24T03:31:49.762Z,4.00
2019-01-24T03:32:49.754Z,4.00
2019-01-24T03:33:49.737Z,4.00
2019-01-24T03:34:49.722Z,4.00
2019-01-24T03:35:49.708Z,4.00
2019-01-24T03:36:49.695Z,4.00
2019-01-24T03:37:49.675Z,4.00
2019-01-24T03:38:49.664Z,4.00
2019-01-24T03:39:49.645Z,4.00
2019-01-24T03:40:49.627Z,4.00
2019-01-24T03:41:49.621Z,4.00
2019-01-24T03:42:49.604Z,4.00
2019-01-24T03:43:49.591Z,4.00
2019-01-24T03:44:49.572Z,8.00
2019-01-24T03:45:49.553Z,4.00
2019-01-24T03:46:49.540Z,4.00
2019-01-24T03:47:49.529Z,4.00
2019-01-24T03:48:49.510Z,4.00
2019-01-24T03:49:49.504Z,4.00
2019-01-24T03:50:49.490Z,4.00
2019-01-24T03:51:49.472Z,4.00
2019-01-24T03:52:49.452Z,4.00
2019-01-24T03:53:49.440Z,4.00
2019-01-24T03:54:49.418Z,4.00
2019-01-24T03:55:49.430Z,4.00
2019-01-24T03:56:49.393Z,4.00
2019-01-24T03:57:49.381Z,4.00
2019-01-24T03:58:49.364Z,4.00
2019-01-24T03:59:49.348Z,4.00
2019-01-24T04:00:49.335Z,4.00
2019-01-24T04:01:49.324Z,4.00
2019-01-24T04:02:49.314Z,4.00
2019-01-24T04:03:49.299Z,4.00
2019-01-24T04:04:49.271Z,4.00
2019-01-24T04:05:49.262Z,4.00
2019-01-24T04:06:49.254Z,4.00
2019-01-24T04:07:49.234Z,4.00
2019-01-24T04:08:50.064Z,4.00
2019-01-24T04:09:49.204Z,4.00
2019-01-24T04:10:49.198Z,4.00
2019-01-24T04:11:49.174Z,4.00
2019-01-24T04:12:49.162Z,8.00
2019-01-24T04:13:49.147Z,8.00
2019-01-24T04:14:49.136Z,8.00
2019-01-24T04:15:49.123Z,8.00
2019-01-24T04:16:49.103Z,8.00
2019-01-24T04:17:49.090Z,8.00
2019-01-24T04:18:49.067Z,8.00
2019-01-24T04:19:49.057Z,8.00
2019-01-24T04:20:49.057Z,8.00
2019-01-24T04:21:49.027Z,8.00
2019-01-24T04:22:49.023Z,8.00
2019-01-24T04:23:49.001Z,8.00
2019-01-24T04:24:48.980Z,8.00
2019-01-24T04:25:48.971Z,8.00
2019-01-24T04:26:48.954Z,8.00
2019-01-24T04:27:48.942Z,8.00
2019-01-24T04:28:48.920Z,8.00
2019-01-24T04:29:48.915Z,8.00
2019-01-24T04:30:48.904Z,8.00
2019-01-24T04:31:48.881Z,8.00
2019-01-24T04:32:48.870Z,8.00
2019-01-24T04:33:48.867Z,8.00
2019-01-24T04:34:48.835Z,8.00
2019-01-24T04:35:48.828Z,12.00
2019-01-24T04:36:48.811Z,12.00
2019-01-24T04:37:48.796Z,12.00
2019-01-24T04:38:48.788Z,12.00
2019-01-24T04:39:48.766Z,8.00
2019-01-24T04:40:48.758Z,8.00
2019-01-24T04:41:48.739Z,8.00
2019-01-24T04:42:48.723Z,8.00
2019-01-24T04:43:48.711Z,8.00
2019-01-24T04:44:48.699Z,8.00
2019-01-24T04:45:48.707Z,8.00
2019-01-24T04:46:48.668Z,8.00
2019-01-24T04:47:48.656Z,8.00
2019-01-24T04:48:48.641Z,8.00
2019-01-24T04:49:48.625Z,8.00
2019-01-24T04:50:48.614Z,8.00
2019-01-24T04:51:48.595Z,8.00
2019-01-24T04:52:48.580Z,8.00
2019-01-24T04:53:48.568Z,8.00
2019-01-24T04:54:48.547Z,8.00
2019-01-24T04:55:48.542Z,8.00
2019-01-24T04:56:48.528Z,8.00
2019-01-24T04:57:48.506Z,8.00
2019-01-24T04:58:48.497Z,8.00
2019-01-24T04:59:48.482Z,8.00
2019-01-24T05:00:48.473Z,8.00
2019-01-24T05:01:48.458Z,8.00
2019-01-24T05:02:48.445Z,8.00
2019-01-24T05:03:48.423Z,8.00
2019-01-24T05:04:48.409Z,8.00
2019-01-24T05:05:48.396Z,8.00
2019-01-24T05:06:48.383Z,8.00
2019-01-24T05:07:48.366Z,8.00
2019-01-24T05:08:48.380Z,8.00
2019-01-24T05:09:48.827Z,8.00
2019-01-24T05:10:48.326Z,8.00
2019-01-24T05:11:48.308Z,8.00
2019-01-24T05:12:48.297Z,8.00
2019-01-24T05:13:48.289Z,8.00
2019-01-24T05:14:48.266Z,8.00
2019-01-24T05:15:48.259Z,8.00
2019-01-24T05:16:48.238Z,8.00
2019-01-24T05:17:48.225Z,8.00
2019-01-24T05:18:48.205Z,8.00
2019-01-24T05:19:48.191Z,8.00
2019-01-24T05:20:48.201Z,8.00
2019-01-24T05:21:48.168Z,8.00
2019-01-24T05:22:48.153Z,8.00
2019-01-24T05:23:48.133Z,8.00
2019-01-24T05:24:48.122Z,8.00
2019-01-24T05:25:48.109Z,8.00
2019-01-24T05:26:48.093Z,8.00
2019-01-24T05:27:48.079Z,8.00
2019-01-24T05:28:48.082Z,8.00
2019-01-24T05:29:48.047Z,8.00
2019-01-24T05:30:48.036Z,8.00
2019-01-24T05:31:48.019Z,8.00
2019-01-24T05:32:48.012Z,8.00
2019-01-24T05:33:47.999Z,8.00
2019-01-24T05:34:47.981Z,12.00
2019-01-24T05:35:47.964Z,12.00
2019-01-24T05:36:47.950Z,16.00
2019-01-24T05:37:47.933Z,16.00
2019-01-24T05:38:47.919Z,16.00
2019-01-24T05:39:47.906Z,16.00
2019-01-24T05:40:47.890Z,16.00
2019-01-24T05:41:47.877Z,16.00
2019-01-24T05:42:47.865Z,16.00
2019-01-24T05:43:47.848Z,16.00
2019-01-24T05:44:47.834Z,16.00
2019-01-24T05:45:47.815Z,16.00
2019-01-24T05:46:47.805Z,16.00
2019-01-24T05:47:47.790Z,16.00
2019-01-24T05:48:47.778Z,16.00
2019-01-24T05:49:47.768Z,16.00
2019-01-24T05:50:47.749Z,16.00
2019-01-24T05:51:47.729Z,16.00
2019-01-24T05:52:47.725Z,16.00
2019-01-24T05:53:47.710Z,16.00
2019-01-24T05:54:47.689Z,16.00
2019-01-24T05:55:47.677Z,16.00
2019-01-24T05:56:47.660Z,16.00
2019-01-24T05:57:47.645Z,16.00
2019-01-24T05:58:47.634Z,16.00
2019-01-24T05:59:47.619Z,16.00
2019-01-24T06:00:47.605Z,16.00
2019-01-24T06:01:47.611Z,16.00
2019-01-24T06:02:47.577Z,16.00
2019-01-24T06:03:47.562Z,16.00
2019-01-24T06:04:47.551Z,16.00
2019-01-24T06:05:47.536Z,16.00
2019-01-24T06:06:47.519Z,16.00
2019-01-24T06:07:47.510Z,16.00
2019-01-24T06:08:47.492Z,16.00
2019-01-24T06:09:47.475Z,16.00
2019-01-24T06:10:47.605Z,16.00
2019-01-24T06:11:47.450Z,16.00
2019-01-24T06:12:48.143Z,16.00
2019-01-24T06:13:47.592Z,16.00
2019-01-24T06:14:47.429Z,16.00
2019-01-24T06:15:48.150Z,16.00
2019-01-24T06:16:47.606Z,16.00
2019-01-24T06:17:47.361Z,16.00
2019-01-24T06:18:47.348Z,12.00
2019-01-24T06:19:47.334Z,16.00
2019-01-24T06:20:47.327Z,16.00
2019-01-24T06:21:47.305Z,12.00
2019-01-24T06:22:47.287Z,12.00
2019-01-24T06:23:47.277Z,16.00
2019-01-24T06:24:47.257Z,12.00
2019-01-24T06:25:47.244Z,12.00
2019-01-24T06:26:47.234Z,16.00
2019-01-24T06:27:47.216Z,12.00
2019-01-24T06:28:47.201Z,16.00
2019-01-24T06:29:47.187Z,12.00
2019-01-24T06:30:47.175Z,16.00
2019-01-24T06:31:47.157Z,16.00
2019-01-24T06:32:47.144Z,16.00
2019-01-24T06:33:47.130Z,16.00
2019-01-24T06:34:47.112Z,16.00
2019-01-24T06:35:48.822Z,16.00
2019-01-24T06:36:47.084Z,16.00
2019-01-24T06:37:47.067Z,16.00
2019-01-24T06:38:47.054Z,16.00
2019-01-24T06:39:47.040Z,16.00
2019-01-24T06:40:47.026Z,16.00
2019-01-24T06:41:47.995Z,16.00
2019-01-24T06:42:46.997Z,16.00
2019-01-24T06:43:47.006Z,16.00
2019-01-24T06:44:46.963Z,16.00
2019-01-24T06:45:46.963Z,16.00
2019-01-24T06:46:46.945Z,20.00
2019-01-24T06:47:46.923Z,20.00
2019-01-24T06:48:46.906Z,16.00
2019-01-24T06:49:46.896Z,20.00
2019-01-24T06:50:46.879Z,20.00
2019-01-24T06:51:46.865Z,20.00
2019-01-24T06:52:46.850Z,20.00
2019-01-24T06:53:46.837Z,20.00
2019-01-24T06:54:46.832Z,24.00
2019-01-24T06:55:46.809Z,24.00
2019-01-24T06:56:46.794Z,20.00
2019-01-24T06:57:46.779Z,16.00
2019-01-24T06:58:46.769Z,20.00
2019-01-24T06:59:46.785Z,20.00
2019-01-24T07:00:46.735Z,24.00
2019-01-24T07:01:46.722Z,24.00
2019-01-24T07:02:46.707Z,20.00
2019-01-24T07:03:46.690Z,24.00
2019-01-24T07:04:46.710Z,24.00
2019-01-24T07:05:46.663Z,24.00
2019-01-24T07:06:46.646Z,28.00
2019-01-24T07:07:46.630Z,28.00
2019-01-24T07:08:46.617Z,28.00
2019-01-24T07:09:46.603Z,32.00
2019-01-24T07:10:46.587Z,28.00
2019-01-24T07:11:46.572Z,36.00
2019-01-24T07:12:46.558Z,36.00
2019-01-24T07:13:46.546Z,36.00
2019-01-24T07:14:46.552Z,36.00
2019-01-24T07:15:46.511Z,40.00
2019-01-24T07:16:46.498Z,40.00
2019-01-24T07:17:46.485Z,40.00
2019-01-24T07:18:46.470Z,40.00
2019-01-24T07:19:46.453Z,44.00
2019-01-24T07:20:46.442Z,44.00
2019-01-24T07:21:46.426Z,44.00
2019-01-24T07:22:46.409Z,44.00
2019-01-24T07:23:46.397Z,44.00
2019-01-24T07:24:46.383Z,52.00
2019-01-24T07:25:46.367Z,56.00
2019-01-24T07:26:46.355Z,56.00
2019-01-24T07:27:46.340Z,60.00
2019-01-24T07:28:46.348Z,56.00
2019-01-24T07:29:46.316Z,64.00
2019-01-24T07:30:46.300Z,64.00
2019-01-24T07:31:46.281Z,68.00
2019-01-24T07:32:46.277Z,68.00
2019-01-24T07:33:46.256Z,68.00
2019-01-24T07:34:46.243Z,72.00
2019-01-24T07:35:46.225Z,76.00
2019-01-24T07:36:46.211Z,84.00
2019-01-24T07:37:46.202Z,84.00
2019-01-24T07:38:46.178Z,84.00
2019-01-24T07:39:46.197Z,88.00
2019-01-24T07:40:46.147Z,88.00
2019-01-24T07:41:46.144Z,84.00
2019-01-24T07:42:46.750Z,88.00
2019-01-24T07:43:46.107Z,92.00
2019-01-24T07:44:46.093Z,92.00
2019-01-24T07:45:46.080Z,92.00
2019-01-24T07:46:46.066Z,92.00
2019-01-24T07:47:46.051Z,96.00
2019-01-24T07:48:46.035Z,100.00
2019-01-24T07:49:46.025Z,100.00
2019-01-24T07:50:46.002Z,108.00
2019-01-24T07:51:45.987Z,108.00
2019-01-24T07:52:45.977Z,112.00
2019-01-24T07:53:45.996Z,112.00
2019-01-24T07:54:46.036Z,116.00
2019-01-24T07:55:45.934Z,120.00
2019-01-24T07:56:45.920Z,124.00
2019-01-24T07:57:45.907Z,136.00
2019-01-24T07:58:45.907Z,136.00
2019-01-24T07:59:45.882Z,140.00
2019-01-24T08:00:45.866Z,148.00
2019-01-24T08:01:45.851Z,152.00
2019-01-24T08:02:45.847Z,152.00
2019-01-24T08:03:45.821Z,152.00
2019-01-24T08:04:45.815Z,156.00
2019-01-24T08:05:45.804Z,164.00
2019-01-24T08:06:45.778Z,172.00
2019-01-24T08:07:45.764Z,176.00
2019-01-24T08:08:45.749Z,188.00
2019-01-24T08:09:45.737Z,196.00
2019-01-24T08:10:45.722Z,200.00
2019-01-24T08:11:45.711Z,204.00
2019-01-24T08:12:45.708Z,212.00
2019-01-24T08:13:45.682Z,216.00
2019-01-24T08:14:45.669Z,224.00
2019-01-24T08:15:45.823Z,236.00
2019-01-24T08:16:45.634Z,248.00
2019-01-24T08:17:45.624Z,260.00
2019-01-24T08:18:45.611Z,264.00
2019-01-24T08:19:45.695Z,268.00
2019-01-24T08:20:45.578Z,272.00
2019-01-24T08:21:45.570Z,284.00
2019-01-24T08:22:45.579Z,300.00
2019-01-24T08:23:45.583Z,316.00
2019-01-24T08:24:45.521Z,324.00
2019-01-24T08:25:45.506Z,332.00
2019-01-24T08:26:45.503Z,336.00
2019-01-24T08:27:45.509Z,340.00
2019-01-24T08:28:45.470Z,348.00
2019-01-24T08:29:45.454Z,352.00
2019-01-24T08:30:45.443Z,360.00
2019-01-24T08:31:45.423Z,364.00
2019-01-24T08:32:45.410Z,372.00
2019-01-24T08:33:45.398Z,376.00
2019-01-24T08:34:45.381Z,380.00
2019-01-24T08:35:45.374Z,384.00
2019-01-24T08:36:45.360Z,384.00
2019-01-24T08:37:45.342Z,392.00
2019-01-24T08:38:45.326Z,396.00
2019-01-24T08:39:45.312Z,408.00
2019-01-24T08:40:45.297Z,420.00
2019-01-24T08:41:45.282Z,432.00
2019-01-24T08:42:45.271Z,444.00
2019-01-24T08:43:45.506Z,452.00
2019-01-24T08:44:45.242Z,464.00
2019-01-24T08:45:45.227Z,472.00
2019-01-24T08:46:45.213Z,476.00
2019-01-24T08:47:45.199Z,484.00
2019-01-24T08:48:45.187Z,492.00
2019-01-24T08:49:45.171Z,504.00
2019-01-24T08:50:45.153Z,524.00
2019-01-24T08:51:45.142Z,540.00
2019-01-24T08:52:45.130Z,560.00
2019-01-24T08:53:45.113Z,572.00
2019-01-24T08:54:45.100Z,588.00
2019-01-24T08:55:45.089Z,604.00
2019-01-24T08:56:45.073Z,620.00
2019-01-24T08:57:45.059Z,640.00
2019-01-24T08:58:45.046Z,656.00
2019-01-24T08:59:45.068Z,672.00
2019-01-24T09:00:45.039Z,688.00
2019-01-24T09:01:45.002Z,696.00
2019-01-24T09:02:44.986Z,716.00
2019-01-24T09:03:46.701Z,736.00
2019-01-24T09:04:44.962Z,756.00
2019-01-24T09:05:44.944Z,772.00
2019-01-24T09:06:44.934Z,792.00
2019-01-24T09:07:44.915Z,812.00
2019-01-24T09:08:44.898Z,828.00
2019-01-24T09:09:44.890Z,848.00
2019-01-24T09:10:44.869Z,876.00
2019-01-24T09:11:44.856Z,916.00
2019-01-24T09:12:44.847Z,928.00
2019-01-24T09:13:44.827Z,952.00
2019-01-24T09:14:44.816Z,976.00
2019-01-24T09:15:44.806Z,988.00
2019-01-24T09:16:44.802Z,996.00
2019-01-24T09:17:44.776Z,1004.00
2019-01-24T09:18:44.760Z,1016.00
2019-01-24T09:19:44.743Z,1036.00
2019-01-24T09:20:44.728Z,1052.00
2019-01-24T09:21:44.729Z,1064.00
2019-01-24T09:22:44.708Z,1068.00
2019-01-24T09:23:44.690Z,1080.00
2019-01-24T09:24:44.675Z,1100.00
2019-01-24T09:25:44.659Z,1124.00
2019-01-24T09:26:44.650Z,1148.00
2019-01-24T09:27:44.646Z,1168.00
2019-01-24T09:28:44.622Z,1196.00
2019-01-24T09:29:44.606Z,1208.00
2019-01-24T09:30:44.594Z,1208.00
2019-01-24T09:31:44.579Z,1204.00
2019-01-24T09:32:44.565Z,1196.00
2019-01-24T09:33:44.553Z,1192.00
2019-01-24T09:34:44.542Z,1188.00
2019-01-24T09:35:44.523Z,1188.00
2019-01-24T09:36:44.512Z,1188.00
2019-01-24T09:37:44.508Z,1184.00
2019-01-24T09:38:44.484Z,1188.00
2019-01-24T09:39:44.469Z,1200.00
2019-01-24T09:40:44.458Z,1212.00
2019-01-24T09:41:44.441Z,1212.00
2019-01-24T09:42:44.433Z,1216.00
2019-01-24T09:43:44.415Z,1224.00
2019-01-24T09:44:44.401Z,1208.00
2019-01-24T09:45:44.389Z,1216.00
2019-01-24T09:46:44.373Z,1228.00
2019-01-24T09:47:44.363Z,1236.00
2019-01-24T09:48:44.350Z,1240.00
2019-01-24T09:49:44.333Z,1240.00
2019-01-24T09:50:46.195Z,1248.00
2019-01-24T09:51:44.570Z,1264.00
2019-01-24T09:52:44.293Z,1284.00
2019-01-24T09:53:44.281Z,1304.00
2019-01-24T09:54:44.265Z,1324.00
2019-01-24T09:55:44.304Z,1356.00
2019-01-24T09:56:44.242Z,1380.00
2019-01-24T09:57:44.225Z,1404.00
2019-01-24T09:58:44.212Z,1428.00
2019-01-24T09:59:44.207Z,1460.00
2019-01-24T10:00:44.191Z,1496.00
2019-01-24T10:01:44.173Z,1540.00
2019-01-24T10:02:44.163Z,1576.00
2019-01-24T10:03:44.146Z,1608.00
2019-01-24T10:04:44.142Z,1628.00
2019-01-24T10:05:44.118Z,1648.00
2019-01-24T10:06:44.102Z,1668.00
2019-01-24T10:07:44.099Z,1680.00
2019-01-24T10:08:44.077Z,1696.00
2019-01-24T10:09:44.639Z,1720.00
2019-01-24T10:10:44.051Z,1744.00
2019-01-24T10:11:44.038Z,1768.00
2019-01-24T10:12:44.024Z,1784.00
2019-01-24T10:13:44.024Z,1792.00
2019-01-24T10:14:43.995Z,1812.00
2019-01-24T10:15:44.729Z,1836.00
2019-01-24T10:16:43.989Z,1848.00
2019-01-24T10:17:43.960Z,1840.00
2019-01-24T10:18:43.954Z,1836.00
2019-01-24T10:19:43.934Z,1860.00
2019-01-24T10:20:43.921Z,1876.00
2019-01-24T10:21:43.911Z,1872.00
2019-01-24T10:22:43.893Z,1868.00
2019-01-24T10:23:43.882Z,1876.00
2019-01-24T10:24:43.871Z,1900.00
2019-01-24T10:25:43.862Z,1916.00
2019-01-24T10:26:43.841Z,1924.00
2019-01-24T10:27:43.836Z,1928.00
2019-01-24T10:28:43.813Z,1940.00
2019-01-24T10:29:43.803Z,1964.00
2019-01-24T10:30:43.793Z,1984.00
2019-01-24T10:31:43.778Z,2012.00
2019-01-24T10:32:43.945Z,2032.00
2019-01-24T10:33:45.721Z,2048.00
2019-01-24T10:34:43.735Z,2064.00
2019-01-24T10:35:43.754Z,2076.00
2019-01-24T10:36:43.712Z,2092.00
2019-01-24T10:37:43.695Z,2124.00
2019-01-24T10:38:43.721Z,2148.00
2019-01-24T10:39:43.693Z,2160.00
2019-01-24T10:40:43.677Z,2168.00
2019-01-24T10:41:43.653Z,2156.00
2019-01-24T10:42:43.633Z,2140.00
2019-01-24T10:43:43.621Z,2148.00
2019-01-24T10:44:43.605Z,2160.00
2019-01-24T10:45:43.606Z,2168.00
2019-01-24T10:46:43.583Z,2172.00
2019-01-24T10:47:43.576Z,2164.00
2019-01-24T10:48:43.554Z,2144.00
2019-01-24T10:49:43.542Z,2148.00
2019-01-24T10:50:43.530Z,2152.00
2019-01-24T10:51:43.522Z,2164.00
2019-01-24T10:52:43.508Z,2164.00
2019-01-24T10:53:43.492Z,2168.00
2019-01-24T10:54:43.477Z,2160.00
2019-01-24T10:55:43.471Z,2172.00
2019-01-24T10:56:43.453Z,2140.00
2019-01-24T10:57:43.489Z,2120.00
2019-01-24T10:58:43.497Z,2112.00
2019-01-24T10:59:43.573Z,2088.00
2019-01-24T11:00:43.401Z,2068.00
2019-01-24T11:01:43.394Z,2028.00
2019-01-24T11:02:43.372Z,2024.00
2019-01-24T11:03:43.400Z,2056.00
2019-01-24T11:04:43.438Z,2068.00
2019-01-24T11:05:43.334Z,2064.00
2019-01-24T11:06:49.849Z,2060.00
2019-01-24T11:07:43.310Z,2048.00
2019-01-24T11:08:43.322Z,2044.00
2019-01-24T11:09:43.292Z,2012.00
2019-01-24T11:10:43.272Z,1972.00
2019-01-24T11:11:43.255Z,1932.00
2019-01-24T11:12:43.249Z,1908.00
2019-01-24T11:13:43.235Z,1888.00
2019-01-24T11:14:43.228Z,1896.00
2019-01-24T11:15:43.220Z,1920.00
2019-01-24T11:16:43.520Z,1912.00
2019-01-24T11:17:43.180Z,1888.00
2019-01-24T11:18:43.176Z,1876.00
2019-01-24T11:19:43.158Z,1908.00
2019-01-24T11:20:43.142Z,1952.00
2019-01-24T11:21:43.126Z,1952.00
2019-01-24T11:22:43.117Z,1916.00
2019-01-24T11:23:43.402Z,1896.00
2019-01-24T11:24:43.198Z,1908.00
2019-01-24T11:25:43.084Z,1924.00
2019-01-24T11:26:43.067Z,1924.00
2019-01-24T11:27:43.075Z,1908.00
2019-01-24T11:28:43.040Z,1880.00
2019-01-24T11:29:43.028Z,1852.00
2019-01-24T11:30:43.012Z,1828.00
2019-01-24T11:31:43.013Z,1832.00
2019-01-24T11:32:43.054Z,1840.00
2019-01-24T11:33:42.975Z,1840.00
2019-01-24T11:34:42.964Z,1836.00
2019-01-24T11:35:42.954Z,1828.00
2019-01-24T11:36:42.960Z,1804.00
2019-01-24T11:37:42.938Z,1760.00
2019-01-24T11:38:42.911Z,1712.00
2019-01-24T11:39:42.900Z,1692.00
2019-01-24T11:40:42.896Z,1692.00
2019-01-24T11:41:42.870Z,1708.00
2019-01-24T11:42:42.861Z,1716.00
2019-01-24T11:43:42.868Z,1708.00
2019-01-24T11:44:42.834Z,1692.00
2019-01-24T11:45:42.825Z,1680.00
2019-01-24T11:46:42.804Z,1668.00
2019-01-24T11:47:42.795Z,1672.00
2019-01-24T11:48:42.791Z,1676.00
2019-01-24T11:49:42.774Z,1676.00
2019-01-24T11:50:42.771Z,1668.00
2019-01-24T11:51:42.764Z,1664.00
2019-01-24T11:52:42.773Z,1676.00
2019-01-24T11:53:43.006Z,1684.00
2019-01-24T11:54:42.735Z,1684.00
2019-01-24T11:55:42.699Z,1688.00
2019-01-24T11:56:42.692Z,1664.00
2019-01-24T11:57:42.780Z,1628.00
2019-01-24T11:58:42.657Z,1600.00
2019-01-24T11:59:42.645Z,1592.00
2019-01-24T12:00:42.774Z,1604.00
2019-01-24T12:01:42.624Z,1624.00
2019-01-24T12:02:42.614Z,1628.00
2019-01-24T12:03:42.597Z,1624.00
2019-01-24T12:04:42.581Z,1624.00
2019-01-24T12:05:42.569Z,1596.00
2019-01-24T12:06:42.562Z,1544.00
2019-01-24T12:07:42.545Z,1508.00
2019-01-24T12:08:42.536Z,1504.00
2019-01-24T12:09:42.581Z,1512.00
2019-01-24T12:10:42.506Z,1516.00
2019-01-24T12:11:42.492Z,1516.00
2019-01-24T12:12:42.487Z,1496.00
2019-01-24T12:13:42.470Z,1476.00
2019-01-24T12:14:42.525Z,1460.00
2019-01-24T12:15:42.482Z,1448.00
2019-01-24T12:16:42.433Z,1436.00
2019-01-24T12:17:42.460Z,1428.00
2019-01-24T12:18:42.417Z,1416.00
2019-01-24T12:19:42.392Z,1392.00
2019-01-24T12:20:42.382Z,1356.00
2019-01-24T12:21:42.372Z,1324.00
2019-01-24T12:22:42.357Z,1304.00
2019-01-24T12:23:42.350Z,1296.00
2019-01-24T12:24:42.331Z,1296.00
2019-01-24T12:25:42.325Z,1300.00
2019-01-24T12:26:42.308Z,1308.00
2019-01-24T12:27:42.295Z,1308.00
2019-01-24T12:28:42.285Z,1296.00
2019-01-24T12:29:42.267Z,1276.00
2019-01-24T12:30:42.254Z,1244.00
2019-01-24T12:31:42.245Z,1224.00
2019-01-24T12:32:42.234Z,1216.00
2019-01-24T12:33:42.218Z,1212.00
2019-01-24T12:34:42.238Z,1216.00
2019-01-24T12:35:42.192Z,1208.00
2019-01-24T12:36:42.530Z,1204.00
2019-01-24T12:37:42.222Z,1196.00
2019-01-24T12:38:42.162Z,1184.00
2019-01-24T12:39:42.140Z,1172.00
2019-01-24T12:40:42.129Z,1168.00
2019-01-24T12:41:42.139Z,1160.00
2019-01-24T12:42:42.105Z,1156.00
2019-01-24T12:43:42.095Z,1148.00
2019-01-24T12:44:42.356Z,1136.00
2019-01-24T12:45:42.085Z,1124.00
2019-01-24T12:46:42.056Z,1116.00